Time;durP1;ratioP1;P1;durP2;ratioP2;P2;SDS_P1;SDS_P2;PMS_P1;PMS_P2;Temp;Humidity;BMP_temperature;BMP_pressure;BME280_temperature;BME280_humidity;BME280_pressure;Samples;Min_cycle;Max_cycle;Signal;HPM_P1;HPM_P2
2023/12/16 00:01:32;;;;;;;7.87;3.03;;;4.30;99.90;;;;;;5073280;28;20444;-60
2023/12/16 00:03:58;;;;;;;4.97;2.90;;;4.30;99.90;;;;;;5073147;28;20983;-60
2023/12/16 00:06:23;;;;;;;5.93;3.27;;;4.30;99.90;;;;;;5073267;28;20534;-60
2023/12/16 00:08:49;;;;;;;5.93;2.97;;;4.20;99.90;;;;;;5068802;28;20235;-60
2023/12/16 00:11:14;;;;;;;5.80;2.97;;;4.20;99.90;;;;;;5072765;28;20185;-60
2023/12/16 00:13:40;;;;;;;5.30;2.80;;;4.10;99.90;;;;;;5073259;28;20193;-60
2023/12/16 00:16:06;;;;;;;3.87;2.60;;;4.10;99.90;;;;;;5072106;28;20180;-60
2023/12/16 00:18:31;;;;;;;5.97;2.90;;;4.00;99.90;;;;;;5073252;28;20653;-60
2023/12/16 00:20:56;;;;;;;5.23;3.30;;;4.00;99.90;;;;;;5072572;28;20197;-60
2023/12/16 00:23:22;;;;;;;4.90;3.40;;;4.00;99.90;;;;;;5072340;28;21078;-60
2023/12/16 00:25:47;;;;;;;2.83;1.77;;;3.90;99.90;;;;;;5072941;28;20181;-60
2023/12/16 00:28:13;;;;;;;5.13;2.30;;;3.90;99.90;;;;;;5072559;28;20235;-60
2023/12/16 00:30:38;;;;;;;7.00;2.60;;;3.90;99.90;;;;;;5072993;28;20885;-60
2023/12/16 00:33:04;;;;;;;10.80;4.10;;;3.90;99.90;;;;;;5072870;28;20193;-60
2023/12/16 00:35:29;;;;;;;8.10;4.40;;;3.80;99.90;;;;;;5072226;28;20559;-60
2023/12/16 00:37:55;;;;;;;14.63;4.50;;;3.80;99.90;;;;;;5072034;28;20248;-60
2023/12/16 00:40:20;;;;;;;10.83;3.47;;;3.70;99.90;;;;;;5072678;28;20177;-60
2023/12/16 00:42:46;;;;;;;4.20;2.40;;;3.70;99.90;;;;;;5072437;28;20232;-60
2023/12/16 00:45:11;;;;;;;8.67;2.90;;;3.80;99.90;;;;;;5072667;28;20228;-60
2023/12/16 00:47:38;;;;;;;5.80;3.20;;;3.80;99.90;;;;;;5072326;28;20192;-60
2023/12/16 00:50:05;;;;;;;12.40;5.20;;;3.80;99.90;;;;;;5072688;28;20185;-60
2023/12/16 00:52:30;;;;;;;4.50;3.70;;;3.70;99.90;;;;;;5072080;28;20419;-60
2023/12/16 00:54:56;;;;;;;9.03;4.77;;;3.70;99.90;;;;;;5072252;28;20423;-60
2023/12/16 00:57:21;;;;;;;6.13;3.07;;;3.60;99.90;;;;;;5072168;28;20552;-60
2023/12/16 00:59:47;;;;;;;7.23;3.83;;;3.60;99.90;;;;;;5072315;28;20194;-60
2023/12/16 01:02:12;;;;;;;6.10;3.27;;;3.50;99.90;;;;;;5072507;28;20181;-60
2023/12/16 01:04:38;;;;;;;7.07;3.20;;;3.50;99.90;;;;;;5072258;28;20242;-60
2023/12/16 01:07:03;;;;;;;5.43;3.00;;;3.50;99.90;;;;;;5071561;28;20180;-59
2023/12/16 01:09:29;;;;;;;11.20;3.87;;;3.50;99.90;;;;;;5071872;28;20638;-59
2023/12/16 01:11:55;;;;;;;9.03;4.30;;;3.50;99.90;;;;;;5072002;28;20638;-60
2023/12/16 01:14:20;;;;;;;14.27;5.03;;;3.40;99.90;;;;;;5072072;28;20204;-60
2023/12/16 01:16:46;;;;;;;10.83;4.80;;;3.40;99.90;;;;;;5072170;28;20461;-60
2023/12/16 01:19:11;;;;;;;5.50;3.80;;;3.30;99.90;;;;;;5071475;28;20552;-60
2023/12/16 01:21:41;;;;;;;9.50;4.40;;;3.20;99.90;;;;;;5071723;28;20180;-60
2023/12/16 01:24:07;;;;;;;10.33;4.63;;;3.20;99.90;;;;;;5070351;28;20705;-60
2023/12/16 01:26:32;;;;;;;6.57;2.43;;;3.00;99.90;;;;;;5071951;28;20498;-60
2023/12/16 01:28:57;;;;;;;8.20;3.93;;;3.00;99.90;;;;;;5071792;28;20555;-60
2023/12/16 01:31:23;;;;;;;15.10;4.87;;;3.00;99.90;;;;;;5071737;28;20264;-60
2023/12/16 01:33:48;;;;;;;9.40;4.77;;;2.90;99.90;;;;;;5071591;28;20649;-60
2023/12/16 01:36:14;;;;;;;7.37;3.67;;;2.90;99.90;;;;;;5064888;28;20185;-60
2023/12/16 01:38:40;;;;;;;13.13;4.50;;;2.80;99.90;;;;;;5064313;28;20196;-60
2023/12/16 01:41:05;;;;;;;6.93;3.50;;;2.80;99.90;;;;;;5071456;28;20225;-60
2023/12/16 01:43:31;;;;;;;7.93;3.10;;;2.70;99.90;;;;;;5071544;28;20203;-60
2023/12/16 01:46:03;;;;;;;5.80;2.80;;;2.60;99.90;;;;;;5071070;28;20641;-60
2023/12/16 01:48:30;;;;;;;5.93;3.80;;;2.60;99.90;;;;;;5070505;28;20177;-60
2023/12/16 01:50:55;;;;;;;9.23;4.30;;;2.50;99.90;;;;;;5069760;28;20431;-60
2023/12/16 01:53:21;;;;;;;7.00;3.17;;;2.50;99.90;;;;;;5070788;28;20437;-60
2023/12/16 01:55:47;;;;;;;6.60;3.87;;;2.40;99.90;;;;;;5071585;28;20215;-60
2023/12/16 01:58:12;;;;;;;7.17;3.80;;;2.30;99.90;;;;;;5071109;28;20181;-60
2023/12/16 02:00:39;;;;;;;11.33;5.47;;;2.30;99.90;;;;;;5071453;28;20184;-60
2023/12/16 02:03:05;;;;;;;14.50;5.07;;;2.30;99.90;;;;;;5071158;28;20210;-60
2023/12/16 02:05:30;;;;;;;9.27;5.23;;;2.30;99.90;;;;;;5071567;28;20431;-60
2023/12/16 02:07:56;;;;;;;9.47;2.97;;;2.30;99.90;;;;;;5070502;28;20419;-60
2023/12/16 02:10:21;;;;;;;14.10;5.07;;;2.30;99.90;;;;;;5071210;28;20185;-60
2023/12/16 02:12:47;;;;;;;8.10;4.70;;;2.20;99.90;;;;;;5071092;28;20206;-60
2023/12/16 02:15:12;;;;;;;7.47;3.93;;;2.20;99.90;;;;;;5071392;28;20565;-60
2023/12/16 02:17:38;;;;;;;7.00;2.43;;;2.10;99.90;;;;;;5070905;28;20279;-59
2023/12/16 02:20:04;;;;;;;6.00;3.20;;;2.00;99.90;;;;;;5070570;28;20185;-58
2023/12/16 02:22:29;;;;;;;7.27;3.73;;;1.90;99.90;;;;;;5070115;28;20536;-60
2023/12/16 02:24:55;;;;;;;6.53;3.87;;;1.90;99.90;;;;;;5071092;28;20462;-60
2023/12/16 02:27:21;;;;;;;4.60;2.90;;;1.90;99.90;;;;;;5071074;28;20264;-60
2023/12/16 02:29:46;;;;;;;4.50;2.90;;;1.90;99.90;;;;;;5071321;28;20219;-60
2023/12/16 02:32:12;;;;;;;7.43;3.03;;;2.00;99.90;;;;;;5070904;28;20189;-60
2023/12/16 02:34:37;;;;;;;8.23;4.10;;;2.00;99.90;;;;;;5071463;28;20213;-60
2023/12/16 02:37:06;;;;;;;7.23;3.67;;;2.00;99.90;;;;;;5057269;28;20185;-60
2023/12/16 02:39:32;;;;;;;8.73;3.77;;;2.00;99.90;;;;;;5057660;28;20634;-60
2023/12/16 02:41:58;;;;;;;6.03;2.93;;;2.10;99.90;;;;;;5070979;28;20974;-60
2023/12/16 02:44:24;;;;;;;5.73;3.30;;;2.20;99.90;;;;;;5070968;28;20461;-60
2023/12/16 02:46:49;;;;;;;10.30;4.50;;;2.30;99.90;;;;;;5070998;28;20188;-60
2023/12/16 02:49:15;;;;;;;9.07;3.83;;;2.30;99.90;;;;;;5073517;28;20185;-60
2023/12/16 02:51:40;;;;;;;10.47;4.50;;;2.30;99.90;;;;;;5076488;28;20276;-60
2023/12/16 02:54:06;;;;;;;8.63;4.40;;;2.30;99.90;;;;;;5070014;28;20208;-60
2023/12/16 02:56:31;;;;;;;6.57;3.63;;;2.40;99.90;;;;;;5064993;28;20190;-60
2023/12/16 02:58:57;;;;;;;11.70;5.03;;;2.50;99.90;;;;;;5074437;28;20553;-60
2023/12/16 03:01:22;;;;;;;5.37;3.30;;;2.50;99.90;;;;;;5074469;28;20272;-58
2023/12/16 03:03:48;;;;;;;9.30;3.77;;;2.40;99.90;;;;;;5074218;28;20200;-59
2023/12/16 03:06:13;;;;;;;9.40;3.80;;;2.40;99.90;;;;;;5074302;28;20634;-60
2023/12/16 03:08:39;;;;;;;5.40;2.60;;;2.50;99.90;;;;;;5073449;28;20189;-60
2023/12/16 03:11:04;;;;;;;5.43;3.30;;;2.60;99.90;;;;;;5074387;28;20229;-60
2023/12/16 03:13:30;;;;;;;5.23;2.90;;;2.50;99.90;;;;;;5058539;28;20865;-60
2023/12/16 03:15:56;;;;;;;5.50;3.13;;;2.50;99.90;;;;;;5074585;28;20188;-60
2023/12/16 03:18:22;;;;;;;11.97;3.83;;;2.50;99.90;;;;;;5065576;28;20957;-60
2023/12/16 03:20:50;;;;;;;6.53;3.47;;;2.50;99.90;;;;;;5076307;28;20189;-60
2023/12/16 03:23:16;;;;;;;8.50;3.60;;;2.50;99.90;;;;;;5062580;28;20215;-60
2023/12/16 03:25:43;;;;;;;8.27;3.73;;;2.40;99.90;;;;;;5073822;28;20814;-60
2023/12/16 03:28:09;;;;;;;13.30;3.87;;;2.30;99.90;;;;;;5073977;28;20742;-60
2023/12/16 03:30:34;;;;;;;10.03;3.67;;;2.30;99.90;;;;;;5074198;28;20423;-60
2023/12/16 03:33:00;;;;;;;3.37;2.77;;;2.20;99.90;;;;;;5073940;28;20553;-60
2023/12/16 03:35:25;;;;;;;7.53;3.33;;;2.30;99.90;;;;;;5074068;28;20181;-60
2023/12/16 03:37:51;;;;;;;5.73;3.03;;;2.30;99.90;;;;;;5073188;28;20638;-60
2023/12/16 03:40:16;;;;;;;8.03;3.30;;;2.30;99.90;;;;;;5073771;28;20306;-60
2023/12/16 03:42:42;;;;;;;19.67;2.90;;;2.30;99.90;;;;;;5073634;28;20232;-60
2023/12/16 03:45:07;;;;;;;6.77;3.97;;;2.30;99.90;;;;;;5073857;28;20205;-60
2023/12/16 03:47:34;;;;;;;5.47;3.20;;;2.40;99.90;;;;;;5073034;28;20264;-60
2023/12/16 03:49:59;;;;;;;6.80;3.90;;;2.40;99.90;;;;;;5080092;28;20276;-60
2023/12/16 03:52:25;;;;;;;6.87;3.13;;;2.50;99.90;;;;;;5073129;28;20498;-60
2023/12/16 03:54:50;;;;;;;6.00;3.70;;;2.60;99.90;;;;;;5073495;28;20580;-60
2023/12/16 03:57:16;;;;;;;6.33;3.07;;;2.60;99.90;;;;;;5073416;28;20184;-60
2023/12/16 03:59:41;;;;;;;6.93;3.27;;;2.60;99.90;;;;;;5071896;28;20203;-60
2023/12/16 04:02:07;;;;;;;14.33;4.03;;;2.60;99.90;;;;;;5072764;28;20213;-60
2023/12/16 04:04:33;;;;;;;5.33;3.37;;;2.50;99.90;;;;;;5071163;28;20641;-60
2023/12/16 04:07:00;;;;;;;6.57;2.90;;;2.60;99.90;;;;;;5073285;28;20219;-60
2023/12/16 04:09:27;;;;;;;6.57;3.70;;;2.60;99.90;;;;;;5072241;28;20485;-60
2023/12/16 04:11:52;;;;;;;5.47;3.30;;;2.60;99.90;;;;;;5073273;28;20423;-60
2023/12/16 04:14:18;;;;;;;7.90;3.10;;;2.70;99.90;;;;;;5073191;28;20443;-60
2023/12/16 04:16:43;;;;;;;8.90;4.60;;;2.70;99.90;;;;;;5073297;28;20200;-60
2023/12/16 04:19:10;;;;;;;15.90;4.60;;;2.90;99.90;;;;;;5072135;28;20850;-60
2023/12/16 04:21:37;;;;;;;9.83;3.97;;;3.00;99.90;;;;;;5072899;28;20469;-60
2023/12/16 04:24:02;;;;;;;8.03;4.27;;;3.10;99.90;;;;;;5071400;28;20236;-60
2023/12/16 04:26:28;;;;;;;41.57;5.30;;;3.00;99.90;;;;;;5073034;28;20755;-60
2023/12/16 04:28:53;;;;;;;11.80;3.80;;;3.00;99.90;;;;;;5073006;28;20230;-60
2023/12/16 04:31:19;;;;;;;6.50;4.30;;;3.00;99.90;;;;;;5073001;28;20181;-60
2023/12/16 04:33:45;;;;;;;8.33;3.70;;;3.00;99.90;;;;;;5072762;28;20193;-60
2023/12/16 04:36:14;;;;;;;11.70;4.20;;;3.00;99.90;;;;;;5072732;28;20443;-59
2023/12/16 04:38:40;;;;;;;7.57;4.37;;;3.00;99.90;;;;;;5072038;28;20358;-59
2023/12/16 04:41:06;;;;;;;7.47;3.97;;;3.10;99.90;;;;;;5072539;28;21025;-59
2023/12/16 04:43:32;;;;;;;7.17;3.70;;;3.10;99.90;;;;;;5067646;28;20506;-59
2023/12/16 04:45:58;;;;;;;8.30;4.20;;;3.00;99.90;;;;;;5072265;28;20515;-60
2023/12/16 04:48:23;;;;;;;8.13;3.90;;;3.20;99.90;;;;;;5071938;28;20660;-60
2023/12/16 04:50:48;;;;;;;8.17;3.93;;;3.30;99.90;;;;;;5072496;28;20192;-60
2023/12/16 04:53:14;;;;;;;9.43;4.60;;;3.20;99.90;;;;;;5071890;28;20609;-60
2023/12/16 04:55:39;;;;;;;7.70;3.67;;;3.20;99.90;;;;;;5072280;28;20180;-60
2023/12/16 04:58:05;;;;;;;7.53;3.33;;;3.20;99.90;;;;;;5072288;28;20181;-60
2023/12/16 05:00:30;;;;;;;7.20;3.87;;;3.10;99.90;;;;;;5072248;28;20692;-60
2023/12/16 05:02:56;;;;;;;16.03;4.03;;;3.10;99.90;;;;;;5072242;28;20208;-60
2023/12/16 05:05:21;;;;;;;8.13;4.07;;;3.00;99.90;;;;;;5072242;28;20216;-60
2023/12/16 05:07:47;;;;;;;7.23;3.60;;;3.00;99.90;;;;;;5071688;28;20295;-60
2023/12/16 05:10:12;;;;;;;6.10;3.57;;;3.00;99.90;;;;;;5083194;28;20209;-60
2023/12/16 05:12:40;;;;;;;9.20;4.83;;;3.00;99.90;;;;;;5072036;28;20177;-59
2023/12/16 05:15:06;;;;;;;6.53;4.10;;;3.00;99.90;;;;;;5072161;28;20261;-58
2023/12/16 05:17:32;;;;;;;7.90;3.83;;;3.00;99.90;;;;;;5071991;28;20421;-60
2023/12/16 05:19:57;;;;;;;7.90;4.40;;;3.10;99.90;;;;;;5071626;28;20515;-60
2023/12/16 05:22:23;;;;;;;7.60;4.00;;;3.10;99.90;;;;;;5070988;28;20738;-60
2023/12/16 05:24:48;;;;;;;6.83;3.50;;;3.20;99.90;;;;;;5071510;28;20215;-60
2023/12/16 05:27:14;;;;;;;7.77;3.70;;;3.10;99.90;;;;;;5071935;28;20181;-60
2023/12/16 05:29:39;;;;;;;8.33;3.97;;;3.10;99.90;;;;;;5071657;28;20641;-60
2023/12/16 05:32:05;;;;;;;6.70;3.60;;;3.10;99.90;;;;;;5071683;28;20546;-60
2023/12/16 05:34:31;;;;;;;7.40;3.53;;;3.10;99.90;;;;;;5071733;28;20211;-60
2023/12/16 05:36:56;;;;;;;7.93;3.97;;;3.10;99.90;;;;;;5071898;28;20188;-60
2023/12/16 05:39:22;;;;;;;6.03;3.27;;;3.10;99.90;;;;;;5070122;28;20200;-60
2023/12/16 05:41:49;;;;;;;8.20;3.87;;;3.10;99.90;;;;;;5071304;28;20233;-60
2023/12/16 05:44:15;;;;;;;8.17;4.07;;;3.10;99.90;;;;;;5071403;28;20657;-60
2023/12/16 05:46:40;;;;;;;6.90;3.97;;;3.10;99.90;;;;;;5071755;28;20458;-60
2023/12/16 05:49:05;;;;;;;8.20;4.07;;;3.10;99.90;;;;;;5071466;28;20189;-60
2023/12/16 05:51:39;;;;;;;10.43;4.70;;;3.10;99.90;;;;;;5071471;28;20185;-61
2023/12/16 05:54:05;;;;;;;9.63;5.23;;;3.10;99.90;;;;;;5070757;28;20181;-60
2023/12/16 05:56:30;;;;;;;9.17;3.23;;;3.10;99.90;;;;;;5071439;28;20476;-60
2023/12/16 05:58:56;;;;;;;6.00;3.53;;;3.10;99.90;;;;;;5071505;28;20267;-60
2023/12/16 06:01:21;;;;;;;6.23;3.53;;;3.10;99.90;;;;;;5071559;28;20556;-60
2023/12/16 06:03:47;;;;;;;9.50;4.90;;;3.10;99.90;;;;;;5071324;28;20201;-60
2023/12/16 06:06:14;;;;;;;9.30;4.97;;;3.10;99.90;;;;;;5071379;28;20661;-60
2023/12/16 06:08:39;;;;;;;9.63;4.77;;;3.10;99.90;;;;;;5066716;28;20173;-60
2023/12/16 06:11:05;;;;;;;6.53;3.67;;;3.00;99.90;;;;;;5064068;28;20456;-60
2023/12/16 06:13:30;;;;;;;7.60;3.90;;;3.00;99.90;;;;;;5071300;28;20184;-60
2023/12/16 06:15:56;;;;;;;6.80;4.20;;;3.00;99.90;;;;;;5071496;28;20234;-60
2023/12/16 06:18:21;;;;;;;5.90;3.37;;;3.00;99.90;;;;;;5071262;28;20188;-60
2023/12/16 06:20:47;;;;;;;7.63;3.70;;;3.00;99.90;;;;;;5071401;28;20959;-60
2023/12/16 06:23:12;;;;;;;4.07;2.93;;;3.00;99.90;;;;;;5070447;28;20196;-60
2023/12/16 06:25:37;;;;;;;4.20;3.03;;;2.90;99.90;;;;;;5071058;28;20653;-60
2023/12/16 06:28:03;;;;;;;4.20;2.77;;;2.90;99.90;;;;;;5070896;28;20195;-60
2023/12/16 06:30:28;;;;;;;8.20;3.73;;;2.90;99.90;;;;;;5081442;28;20191;-60
2023/12/16 06:32:54;;;;;;;6.53;3.20;;;2.80;99.90;;;;;;5075021;28;20183;-60
2023/12/16 06:35:19;;;;;;;5.00;3.10;;;2.90;99.90;;;;;;5075299;28;20271;-60
2023/12/16 06:37:45;;;;;;;9.53;3.23;;;2.90;99.90;;;;;;5061031;28;20529;-60
2023/12/16 06:40:11;;;;;;;3.80;2.07;;;2.90;99.90;;;;;;5071988;28;20680;-60
2023/12/16 06:42:36;;;;;;;6.73;2.87;;;2.80;99.90;;;;;;5074337;28;20343;-60
2023/12/16 06:45:02;;;;;;;5.40;3.13;;;2.60;99.90;;;;;;5074741;28;20197;-60
2023/12/16 06:47:27;;;;;;;4.20;2.27;;;2.60;99.90;;;;;;5074692;28;20692;-60
2023/12/16 06:49:53;;;;;;;6.30;2.57;;;2.60;99.90;;;;;;5074844;28;20189;-60
2023/12/16 06:52:18;;;;;;;6.53;2.90;;;2.60;99.90;;;;;;5072990;28;20574;-60
2023/12/16 06:54:44;;;;;;;5.00;2.90;;;2.60;99.90;;;;;;5074016;28;20768;-60
2023/12/16 06:57:09;;;;;;;4.57;2.40;;;2.60;99.90;;;;;;5073212;28;20288;-60
2023/12/16 06:59:35;;;;;;;3.90;2.23;;;2.50;99.90;;;;;;5071567;28;20645;-60
2023/12/16 07:02:00;;;;;;;4.27;2.10;;;2.50;99.90;;;;;;5074039;28;20221;-60
2023/12/16 07:04:26;;;;;;;4.60;2.30;;;2.50;99.90;;;;;;5074371;28;20200;-60
2023/12/16 07:06:52;;;;;;;5.37;2.47;;;2.40;99.90;;;;;;5074226;28;20173;-60
2023/12/16 07:09:17;;;;;;;4.40;2.70;;;2.40;99.90;;;;;;5073764;28;20764;-60
2023/12/16 07:11:43;;;;;;;5.00;3.00;;;2.40;99.90;;;;;;5074289;28;20177;-60
2023/12/16 07:14:09;;;;;;;5.10;2.77;;;2.40;99.90;;;;;;5073800;28;20677;-60
2023/12/16 07:16:35;;;;;;;3.90;2.10;;;2.40;99.90;;;;;;5073504;28;20178;-60
2023/12/16 07:19:00;;;;;;;5.67;2.90;;;2.40;99.90;;;;;;5074190;28;20434;-60
2023/12/16 07:21:27;;;;;;;5.20;2.47;;;2.40;99.90;;;;;;5073747;28;20181;-60
2023/12/16 07:23:52;;;;;;;3.50;2.57;;;2.30;99.90;;;;;;5073193;28;20216;-60
2023/12/16 07:26:18;;;;;;;5.10;2.77;;;2.40;99.90;;;;;;5073904;28;20423;-60
2023/12/16 07:28:43;;;;;;;4.30;2.10;;;2.40;99.90;;;;;;5073934;28;20220;-60
2023/12/16 07:31:09;;;;;;;4.53;2.20;;;2.40;99.90;;;;;;5073740;28;20706;-61
2023/12/16 07:33:37;;;;;;;5.50;2.20;;;2.60;99.90;;;;;;5074132;28;20633;-60
2023/12/16 07:36:03;;;;;;;4.97;2.80;;;2.50;99.90;;;;;;5065760;28;20201;-60
2023/12/16 07:38:29;;;;;;;5.87;3.13;;;2.50;99.90;;;;;;5070496;28;20572;-60
2023/12/16 07:40:54;;;;;;;4.57;2.93;;;2.50;99.90;;;;;;5073107;28;20890;-60
2023/12/16 07:43:20;;;;;;;6.80;3.70;;;2.50;99.90;;;;;;5073001;28;20196;-60
2023/12/16 07:45:45;;;;;;;5.67;2.93;;;2.50;99.90;;;;;;5072551;28;20193;-60
2023/12/16 07:48:11;;;;;;;5.20;3.03;;;2.50;99.90;;;;;;5072951;28;20212;-60
2023/12/16 07:50:37;;;;;;;6.40;3.03;;;2.50;99.90;;;;;;5072523;28;20252;-60
2023/12/16 07:53:02;;;;;;;4.57;2.63;;;2.60;99.90;;;;;;5069551;28;20263;-60
2023/12/16 07:55:29;;;;;;;5.17;3.47;;;2.60;99.90;;;;;;5072573;28;20184;-60
2023/12/16 07:57:54;;;;;;;4.43;2.53;;;2.70;99.90;;;;;;5072625;28;20185;-60
2023/12/16 08:00:20;;;;;;;4.80;2.90;;;2.70;99.90;;;;;;5073082;28;20425;-61
2023/12/16 08:02:45;;;;;;;3.60;1.90;;;2.70;99.90;;;;;;5073144;28;20220;-61
2023/12/16 08:05:12;;;;;;;3.50;2.00;;;2.70;99.90;;;;;;5073294;28;20664;-61
2023/12/16 08:07:37;;;;;;;6.73;3.20;;;2.70;99.90;;;;;;5069761;28;20185;-61
2023/12/16 08:10:03;;;;;;;5.20;2.50;;;2.70;99.90;;;;;;5065221;28;20424;-61
2023/12/16 08:12:29;;;;;;;7.67;3.50;;;2.80;99.90;;;;;;5072121;28;20180;-60
2023/12/16 08:14:55;;;;;;;3.90;2.70;;;2.90;99.90;;;;;;5073226;28;21070;-59
2023/12/16 08:17:21;;;;;;;5.73;3.03;;;2.90;99.90;;;;;;5073166;28;20288;-59
2023/12/16 08:19:47;;;;;;;16.83;2.80;;;2.90;99.90;;;;;;5073148;28;20188;-59
2023/12/16 08:22:13;;;;;;;5.07;2.70;;;2.90;99.90;;;;;;5072675;28;20181;-59
2023/12/16 08:24:41;;;;;;;4.63;2.73;;;2.90;99.90;;;;;;5072520;28;20466;-59
2023/12/16 08:27:06;;;;;;;5.43;2.63;;;2.90;99.90;;;;;;5073002;28;20549;-59
2023/12/16 08:29:32;;;;;;;8.00;2.80;;;2.90;99.90;;;;;;5072780;28;20474;-59
2023/12/16 08:31:57;;;;;;;6.83;3.37;;;2.80;99.90;;;;;;5073040;28;20660;-59
2023/12/16 08:34:23;;;;;;;7.87;3.33;;;2.80;99.90;;;;;;5073016;28;20181;-59
2023/12/16 08:36:48;;;;;;;7.07;3.57;;;2.90;99.90;;;;;;5071604;28;20554;-59
2023/12/16 08:39:15;;;;;;;6.70;3.57;;;3.00;99.90;;;;;;5073571;28;20638;-59
2023/12/16 08:41:40;;;;;;;19.83;3.37;;;3.00;99.90;;;;;;5072583;28;20768;-59
2023/12/16 08:44:06;;;;;;;10.13;5.37;;;3.10;99.90;;;;;;5072437;28;20470;-59
2023/12/16 08:46:31;;;;;;;11.23;5.07;;;3.20;99.90;;;;;;5072322;28;20263;-59
2023/12/16 08:48:57;;;;;;;19.70;9.80;;;3.30;99.90;;;;;;5072368;28;20185;-59
2023/12/16 08:51:23;;;;;;;13.90;6.43;;;3.30;99.90;;;;;;5072509;28;20543;-59
2023/12/16 08:53:49;;;;;;;10.50;4.80;;;3.40;99.90;;;;;;5067932;28;20518;-59
2023/12/16 08:56:17;;;;;;;5.97;3.00;;;3.40;99.90;;;;;;5067387;28;20207;-59
2023/12/16 08:58:46;;;;;;;9.03;2.77;;;3.50;99.90;;;;;;5065717;28;20181;-59
2023/12/16 09:01:12;;;;;;;7.73;3.57;;;3.50;99.90;;;;;;5067992;28;20939;-59
2023/12/16 09:03:42;;;;;;;9.00;4.50;;;3.50;99.90;;;;;;5063831;28;20489;-59
2023/12/16 09:06:08;;;;;;;27.27;8.60;;;3.60;99.90;;;;;;5072292;28;20181;-59
2023/12/16 09:08:33;;;;;;;9.27;4.03;;;3.60;99.90;;;;;;5078073;28;20513;-59
2023/12/16 09:10:59;;;;;;;5.67;3.17;;;3.60;99.90;;;;;;5067849;28;20189;-59
2023/12/16 09:13:24;;;;;;;6.10;2.73;;;3.70;99.90;;;;;;5071826;28;20268;-60
2023/12/16 09:15:50;;;;;;;5.57;2.57;;;3.70;99.90;;;;;;5071496;28;20188;-59
2023/12/16 09:18:16;;;;;;;5.10;2.60;;;3.80;99.90;;;;;;5071709;28;20181;-59
2023/12/16 09:20:41;;;;;;;4.57;2.43;;;3.80;99.90;;;;;;5071874;28;20964;-59
2023/12/16 09:23:08;;;;;;;7.63;3.10;;;3.80;99.90;;;;;;5070950;28;20284;-59
2023/12/16 09:25:34;;;;;;;3.70;2.20;;;3.70;99.90;;;;;;5071599;28;20232;-60
2023/12/16 09:27:59;;;;;;;6.80;2.70;;;3.80;99.90;;;;;;5053522;28;20967;-60
2023/12/16 09:30:25;;;;;;;13.90;5.43;;;3.90;99.90;;;;;;5071327;28;20540;-60
2023/12/16 09:32:50;;;;;;;15.93;6.87;;;4.40;99.90;;;;;;5070296;28;20257;-60
2023/12/16 09:35:16;;;;;;;6.10;3.10;;;4.00;99.90;;;;;;5063181;28;20193;-60
2023/12/16 09:37:42;;;;;;;10.90;4.97;;;4.10;99.90;;;;;;5054828;28;20198;-60
2023/12/16 09:40:08;;;;;;;6.10;3.27;;;4.10;99.90;;;;;;5063449;28;20220;-60
2023/12/16 09:42:37;;;;;;;5.53;3.60;;;4.00;99.90;;;;;;5070708;28;20237;-61
2023/12/16 09:45:04;;;;;;;6.53;3.37;;;4.10;99.90;;;;;;5071716;28;20205;-62
2023/12/16 09:47:30;;;;;;;8.50;2.73;;;4.20;99.90;;;;;;5071224;28;20423;-63
2023/12/16 09:50:00;;;;;;;4.53;2.53;;;4.20;99.90;;;;;;5071705;28;20848;-62
2023/12/16 09:52:26;;;;;;;4.20;2.50;;;4.20;99.90;;;;;;5071498;28;20461;-63
2023/12/16 09:54:52;;;;;;;3.23;2.37;;;4.30;99.90;;;;;;5071162;28;20783;-63
2023/12/16 09:57:19;;;;;;;3.30;2.30;;;4.30;99.90;;;;;;5071116;28;20443;-59
2023/12/16 09:59:45;;;;;;;3.77;2.40;;;4.30;99.90;;;;;;5063156;28;20194;-60
2023/12/16 10:02:27;;;;;;;4.00;2.30;;;4.50;99.90;;;;;;5070470;28;21091;-60
2023/12/16 10:04:57;;;;;;;3.20;2.03;;;4.50;99.90;;;;;;5064182;28;20497;-60
2023/12/16 10:07:23;;;;;;;3.37;2.03;;;4.60;99.90;;;;;;5069632;28;20423;-60
2023/12/16 10:09:49;;;;;;;3.00;1.60;;;4.70;99.90;;;;;;5069089;28;20427;-60
2023/12/16 10:12:14;;;;;;;3.43;2.47;;;4.70;99.90;;;;;;5070588;28;20950;-61
2023/12/16 10:14:47;;;;;;;3.83;1.93;;;4.80;99.90;;;;;;5069629;28;20222;-60
2023/12/16 10:17:18;;;;;;;3.37;1.83;;;4.90;99.90;;;;;;5070934;28;20230;-60
2023/12/16 10:19:45;;;;;;;4.07;2.10;;;4.90;99.90;;;;;;5070375;28;20510;-60
2023/12/16 10:22:18;;;;;;;4.37;2.40;;;5.00;99.90;;;;;;5060036;28;20440;-60
2023/12/16 10:24:45;;;;;;;6.37;2.90;;;5.00;99.90;;;;;;5067566;28;20900;-60
2023/12/16 10:27:10;;;;;;;7.73;2.70;;;5.10;99.90;;;;;;5070584;28;20480;-60
2023/12/16 10:29:39;;;;;;;3.10;2.10;;;5.10;99.90;;;;;;5070640;28;20419;-60
2023/12/16 10:32:08;;;;;;;5.97;2.60;;;5.10;99.90;;;;;;5070475;28;20185;-60
2023/12/16 10:34:33;;;;;;;8.10;2.90;;;5.10;99.90;;;;;;5062274;28;20522;-60
2023/12/16 10:37:06;;;;;;;5.63;2.00;;;5.10;99.90;;;;;;5078214;28;20459;-60
2023/12/16 10:39:32;;;;;;;4.83;2.50;;;5.20;99.90;;;;;;5044459;28;20186;-60
2023/12/16 10:41:57;;;;;;;11.53;2.27;;;5.30;99.90;;;;;;5055166;28;20992;-60
2023/12/16 10:44:23;;;;;;;4.87;2.23;;;5.30;99.90;;;;;;5068039;28;20783;-60
2023/12/16 10:46:51;;;;;;;6.33;2.40;;;5.40;99.90;;;;;;5069330;28;20181;-59
2023/12/16 10:49:17;;;;;;;6.87;2.90;;;5.40;99.90;;;;;;5061570;28;20189;-59
2023/12/16 10:51:48;;;;;;;6.60;2.57;;;5.40;99.90;;;;;;5069328;28;20419;-58
2023/12/16 10:54:32;;;;;;;6.00;3.10;;;5.60;99.90;;;;;;5067617;28;20188;-58
2023/12/16 10:57:30;;;;;;;6.70;3.33;;;5.70;99.90;;;;;;5066460;28;20786;-58
2023/12/16 11:00:04;;;;;;;5.23;2.43;;;5.70;99.90;;;;;;5049925;28;20958;-58
2023/12/16 11:02:31;;;;;;;23.17;8.13;;;5.80;99.90;;;;;;5069053;28;20438;-58
2023/12/16 11:05:14;;;;;;;12.50;4.37;;;5.80;99.90;;;;;;5073094;28;20459;-58
2023/12/16 11:07:41;;;;;;;7.33;2.80;;;5.80;99.90;;;;;;5067968;28;20513;-58
2023/12/16 11:10:07;;;;;;;4.10;2.63;;;5.90;99.90;;;;;;5057012;28;20423;-58
2023/12/16 11:12:35;;;;;;;3.13;1.50;;;5.80;99.90;;;;;;5067334;28;20428;-58
2023/12/16 11:15:03;;;;;;;7.43;1.93;;;5.90;99.90;;;;;;5057151;28;20450;-58
2023/12/16 11:17:39;;;;;;;3.53;1.87;;;6.10;99.90;;;;;;5069803;28;20462;-58
2023/12/16 11:20:09;;;;;;;4.40;2.07;;;6.10;99.90;;;;;;5063040;28;20746;-58
2023/12/16 11:22:46;;;;;;;2.80;2.00;;;6.20;99.90;;;;;;5063493;28;20477;-56
2023/12/16 11:25:19;;;;;;;3.70;2.10;;;6.10;99.90;;;;;;5064279;28;20558;-56
2023/12/16 11:27:48;;;;;;;9.73;1.90;;;6.20;99.90;;;;;;5072973;28;20977;-58
2023/12/16 11:30:15;;;;;;;3.87;1.80;;;6.10;99.90;;;;;;5073395;28;20925;-58
2023/12/16 11:32:44;;;;;;;4.20;2.53;;;6.10;99.90;;;;;;5072867;28;20430;-58
2023/12/16 11:35:10;;;;;;;7.00;2.53;;;6.20;99.90;;;;;;5068995;28;20436;-58
2023/12/16 11:37:36;;;;;;;3.60;2.00;;;6.20;99.90;;;;;;5079755;28;20477;-58
2023/12/16 11:40:04;;;;;;;5.07;1.97;;;6.20;99.90;;;;;;5071543;28;20189;-58
2023/12/16 11:42:48;;;;;;;3.93;2.30;;;6.30;99.90;;;;;;5072676;28;20229;-58
2023/12/16 11:45:37;;;;;;;7.77;2.30;;;6.40;99.90;;;;;;5066591;28;20463;-58
2023/12/16 11:48:04;;;;;;;4.97;2.40;;;6.50;99.90;;;;;;5072397;28;20805;-58
2023/12/16 11:50:37;;;;;;;3.57;1.63;;;6.50;99.90;;;;;;5072241;28;20426;-58
2023/12/16 11:53:04;;;;;;;5.60;2.03;;;6.50;99.90;;;;;;5072473;28;20430;-58
2023/12/16 11:55:29;;;;;;;3.00;1.50;;;6.30;99.90;;;;;;5067767;28;20416;-58
2023/12/16 11:57:55;;;;;;;6.63;1.80;;;6.30;99.90;;;;;;5064533;28;20518;-58
2023/12/16 12:00:22;;;;;;;7.13;1.93;;;6.40;99.90;;;;;;5072947;28;20235;-58
2023/12/16 12:02:51;;;;;;;2.43;1.27;;;6.30;99.90;;;;;;5072415;28;20187;-58
2023/12/16 12:05:17;;;;;;;5.70;1.33;;;6.20;99.90;;;;;;5061735;28;20463;-58
2023/12/16 12:07:42;;;;;;;2.23;1.57;;;6.20;99.90;;;;;;5074191;28;20430;-58
2023/12/16 12:10:09;;;;;;;3.00;1.17;;;6.30;99.90;;;;;;5072362;28;20423;-58
2023/12/16 12:12:34;;;;;;;7.43;2.57;;;6.20;99.90;;;;;;5072116;28;20207;-58
2023/12/16 12:15:00;;;;;;;4.30;2.23;;;6.30;99.90;;;;;;5072333;28;20963;-58
2023/12/16 12:17:28;;;;;;;9.13;1.93;;;6.20;99.90;;;;;;5066957;28;20558;-59
2023/12/16 12:19:54;;;;;;;5.33;2.20;;;6.00;99.90;;;;;;5072195;28;20185;-59
2023/12/16 12:22:20;;;;;;;5.00;2.07;;;6.10;99.90;;;;;;5071517;28;20940;-57
2023/12/16 12:24:45;;;;;;;13.20;2.80;;;6.10;99.90;;;;;;5061026;28;20538;-57
2023/12/16 12:27:11;;;;;;;6.83;2.07;;;6.30;99.90;;;;;;5072040;28;20954;-59
2023/12/16 12:30:04;;;;;;;4.63;2.53;;;6.30;99.90;;;;;;5078244;28;20629;-59
2023/12/16 12:32:30;;;;;;;5.23;2.30;;;6.50;99.90;;;;;;5067267;28;20185;-59
2023/12/16 12:35:04;;;;;;;8.37;2.77;;;6.70;99.90;;;;;;5068086;28;20434;-59
2023/12/16 12:37:46;;;;;;;5.33;2.47;;;6.60;99.90;;;;;;5070241;28;20439;-59
2023/12/16 12:40:12;;;;;;;8.03;2.70;;;6.50;99.90;;;;;;5065664;28;20465;-59
2023/12/16 12:42:48;;;;;;;7.73;2.77;;;6.60;99.90;;;;;;5071497;28;21011;-59
2023/12/16 12:45:28;;;;;;;8.03;2.50;;;6.60;99.90;;;;;;5065274;28;20208;-59
2023/12/16 12:47:54;;;;;;;8.83;1.63;;;6.50;99.90;;;;;;5071261;28;20423;-59
2023/12/16 12:50:25;;;;;;;5.70;1.90;;;6.30;99.90;;;;;;5071184;28;20415;-59
2023/12/16 12:52:51;;;;;;;6.77;2.50;;;6.50;99.90;;;;;;5070816;28;20407;-59